Etusivu
METAR-TAF:

METAR-TAF

Lentoasemat :

Harare, Zimbabwe

Leveyspiiri: 17-55S, Pituuspiiri: 031-08E, korkeus merenpinnasta: 1479 m

Tämänhetkinen sää

Tämä raportti tehtiin 21 tuntia ja 32 minuuttia sitten, kello 07.00 UTC
Tuuli 10 kn kaakosta, vaihdellen idän/kaakon ja etelän välillä
Lämpötila 15°C
Kosteus 44%
Ilmanpaine 1031 hPa
Näkyvyys 10 km tai enemmän
Muutamia pilviä 4000 ft:n korkeudessa

METAR: FVHA 210700Z 13010KT 110V180 9999 FEW040 15/03 Q1031 NOSIG

Aika: 06:32 (04:32 UTC)

Sääennuste

Tämä raportti tehtiin 18 tuntia ja 32 minuuttia sitten, kello 10.00 UTC
Ennuste voimassa 21. päivästä klo 12 UTC - 22. päivään klo 18 UTC
Tuuli 7 kn kaakosta
Näkyvyys 10 km tai enemmän
ei pilviä alle 1500 m:ssä eikä cumulonimbus-pilviä

TAF: FVHA 211000Z 2112/2218 13007KT CAVOK

Säähavainnot ja -ennusteet yli 4000 lentoasemalta (METAR- ja TAF-raportit).

Käytössä olevat sääasemat on merkitty karttaan keltaisilla ja punaisilla pisteillä.

Aseta hiiri pisteen päälle nähdäksesi sääaseman nimen.

Klikkaa sitten nähdäksesi säähavainnot ja -ennusteet.

Kartan vaihtaminen: klikkaa mustalla rastilla varustettuja vihreitä pisteitä, niin voit zoomata sisään; viivalla varustettua vihreää pistettä, niin voit zoomata ulos tai vihreitä nuolia, niin pääset viereisille kartoille.


METAR-TAF: